Hoegh Berlin — C6XQ4 — position and weather

sailwx.info

Track history (hours):
 
Tides and Currents Weather Stations Pressure Air Temp Water Temp Dewpoint Dewpoint Depression Visibility Wind Speed Wind Dir Waves Ship Positions

Hoegh Berlin

Last reported at 2014-Aug-31 20:11 UTC. Time now 2014-Sep-01 23:57 UTC.
Position N 31°22' E 032°20'.

Length 228 m; draft 9 m.

Type: Cargo ship. MMSI: 311019100.

Date/timePositionNaut miles runAvg speedWind from/ knotsBaromVisibWave heightAir tempDewpointWater temp
2014-Aug-31 20:11N 31°22' E 032°20'0 0.0
2014-Aug-31 15:32N 31°22' E 032°20'0 0.1
2014-Aug-31 14:32N 31°22' E 032°20'17616.0
2014-Aug-31 03:33N 33°31' E 034°43'1717.5
2014-Aug-31 02:34N 33°43' E 034°58'30 3.5
2014-Aug-30 18:05N 33°54' E 035°31'0 0.0
2014-Aug-30 17:29N 33°54' E 035°31'131 9.4
2014-Aug-30 03:33N 34°03' E 032°53'1413.9
2014-Aug-30 02:33N 34°04' E 032°36'1513.7
2014-Aug-30 01:28N 34°05' E 032°18'1313.9
2014-Aug-30 00:32N 34°06' E 032°03'1613.8
2014-Aug-29 23:22N 34°07' E 031°43'1314.0
2014-Aug-29 22:28N 34°08' E 031°28'1314.2
2014-Aug-29 21:32N 34°09' E 031°12'1614.2
2014-Aug-29 20:24N 34°10' E 030°53'1414.1
2014-Aug-29 19:24N 34°11' E 030°36'1214.1
2014-Aug-29 18:33N 34°12' E 030°21'2014.1
2014-Aug-29 17:09N 34°13' E 029°57'1114.2
2014-Aug-29 16:21N 34°14' E 029°44'1114.2
2014-Aug-29 15:33N 34°15' E 029°30'1414.1
2014-Aug-29 14:33N 34°16' E 029°13'1914.3
2014-Aug-29 13:14N 34°17' E 028°50'1114.6
2014-Aug-29 12:28N 34°18' E 028°37'39214.5
2014-Aug-28 09:24N 35°12' E 020°44'1214.4
2014-Aug-28 08:33N 35°14' E 020°30'1514.3
2014-Aug-28 07:32N 35°18' E 020°12'23814.8
2014-Aug-27 15:29N 36°10' E 015°26'1414.3
2014-Aug-27 14:30N 36°14' E 015°09'1414.5
2014-Aug-27 13:33N 36°17' E 014°53'1414.5
2014-Aug-27 12:33N 36°20' E 014°35'1514.6
2014-Aug-27 11:33N 36°24' E 014°18'1514.6
2014-Aug-27 10:34N 36°29' E 014°00'1514.5
2014-Aug-27 09:34N 36°33' E 013°43'1514.6
2014-Aug-27 08:34N 36°38' E 013°26'1514.6
2014-Aug-27 07:34N 36°43' E 013°09'1514.6
2014-Aug-27 06:34N 36°47' E 012°51'1615.9
2014-Aug-27 05:33N 36°51' E 012°33'1615.6
2014-Aug-27 04:33N 36°57' E 012°14'1514.6
2014-Aug-27 03:33N 37°02' E 011°57'1514.8
2014-Aug-27 02:33N 37°09' E 011°41'1514.7
2014-Aug-27 01:34N 37°16' E 011°25'1514.6
2014-Aug-27 00:34N 37°23' E 011°09'1514.6
2014-Aug-26 23:34N 37°29' E 010°52'1414.4
2014-Aug-26 22:33N 37°36' E 010°36'1514.6
2014-Aug-26 21:34N 37°43' E 010°20'1514.6
2014-Aug-26 20:34N 37°49' E 010°03'1414.1
2014-Aug-26 19:34N 37°51' E 009°45'1514.6
2014-Aug-26 18:34N 37°50' E 009°27'1514.7
2014-Aug-26 17:33N 37°50' E 009°08'1514.7
2014-Aug-26 16:33N 37°50' E 008°50'1514.7
2014-Aug-26 15:33N 37°47' E 008°31'1514.7
2014-Aug-26 14:33N 37°45' E 008°13'1514.8
2014-Aug-26 13:32N 37°42' E 007°54'1715.3
2014-Aug-26 12:25N 37°39' E 007°33'1614.8
2014-Aug-26 11:20N 37°36' E 007°13'1314.9
2014-Aug-26 10:29N 37°34' E 006°57'2714.1
2014-Aug-26 08:33N 37°30' E 006°23'1514.6
2014-Aug-26 07:33N 37°27' E 006°05'1616.0
2014-Aug-26 06:33N 37°24' E 005°45'1515.0
2014-Aug-26 05:33N 37°22' E 005°27'1514.5
2014-Aug-26 04:33N 37°19' E 005°09'1614.8
2014-Aug-26 03:29N 37°16' E 004°49'1414.8
2014-Aug-26 02:33N 37°14' E 004°32'1514.9
2014-Aug-26 01:33N 37°11' E 004°14'1814.7
2014-Aug-26 00:19N 37°08' E 003°51'1215.2
2014-Aug-25 23:33N 37°06' E 003°37'1514.7
2014-Aug-25 22:32N 37°03' E 003°19'1414.2
2014-Aug-25 21:33N 37°01' E 003°01'1515.0
2014-Aug-25 20:33N 36°58' E 002°43'1615.5
2014-Aug-25 19:33N 36°56' E 002°23'1515.2
2014-Aug-25 18:34N 36°53' E 002°05'1515.3
2014-Aug-25 17:34N 36°50' E 001°46'1515.3
2014-Aug-25 16:33N 36°47' E 001°27'1515.2
2014-Aug-25 15:33N 36°45' E 001°09'1514.7
2014-Aug-25 14:33N 36°41' E 000°51'1515.1
2014-Aug-25 13:33N 36°39' E 000°32'1515.5
2014-Aug-25 12:34N 36°37' E 000°13'1515.1
2014-Aug-25 11:33N 36°34' W 000°06'1514.9
2014-Aug-25 10:33N 36°32' W 000°24'1514.7
2014-Aug-25 09:33N 36°30' W 000°42'1814.7
2014-Aug-25 08:21N 36°26' W 001°04'1916.7
2014-Aug-25 07:13N 36°23' W 001°27'1014.8
2014-Aug-25 06:33N 36°21' W 001°39'3014.9
2014-Aug-25 04:33N 36°16' W 002°15'1614.8
2014-Aug-25 03:29N 36°13' W 002°34'13815.5
2014-Aug-24 18:33N 35°58' W 005°24'11015.0
2014-Aug-24 11:12N 36°11' W 007°39'1114.9
2014-Aug-24 10:26N 36°13' W 007°53'1814.8
2014-Aug-24 09:15N 36°16' W 008°15'16114.9
2014-Aug-23 22:27N 36°56' W 011°29'1314.7
2014-Aug-23 21:33N 36°60' W 011°45'  
Track history (hours):
 
Tides and Currents Weather Stations Pressure Air Temp Water Temp Dewpoint Dewpoint Depression Visibility Wind Speed Wind Dir Waves Ship Positions

Hoegh Berlin

Last reported at 2014-Aug-31 20:11 UTC. Time now 2014-Sep-01 23:57 UTC.
Position N 31°22' E 032°20'.

Length 228 m; draft 9 m.

Type: Cargo ship. MMSI: 311019100.

Date/timePositionNaut miles runAvg speedWind from/ knotsBaromVisibWave heightAir tempDewpointWater temp
2014-Aug-31 20:11N 31°22' E 032°20'0 0.0
2014-Aug-31 15:32N 31°22' E 032°20'0 0.1
2014-Aug-31 14:32N 31°22' E 032°20'17616.0
2014-Aug-31 03:33N 33°31' E 034°43'1717.5
2014-Aug-31 02:34N 33°43' E 034°58'30 3.5
2014-Aug-30 18:05N 33°54' E 035°31'0 0.0
2014-Aug-30 17:29N 33°54' E 035°31'131 9.4
2014-Aug-30 03:33N 34°03' E 032°53'1413.9
2014-Aug-30 02:33N 34°04' E 032°36'1513.7
2014-Aug-30 01:28N 34°05' E 032°18'1313.9
2014-Aug-30 00:32N 34°06' E 032°03'1613.8
2014-Aug-29 23:22N 34°07' E 031°43'1314.0
2014-Aug-29 22:28N 34°08' E 031°28'1314.2
2014-Aug-29 21:32N 34°09' E 031°12'1614.2
2014-Aug-29 20:24N 34°10' E 030°53'1414.1
2014-Aug-29 19:24N 34°11' E 030°36'1214.1
2014-Aug-29 18:33N 34°12' E 030°21'2014.1
2014-Aug-29 17:09N 34°13' E 029°57'1114.2
2014-Aug-29 16:21N 34°14' E 029°44'1114.2
2014-Aug-29 15:33N 34°15' E 029°30'1414.1
2014-Aug-29 14:33N 34°16' E 029°13'1914.3
2014-Aug-29 13:14N 34°17' E 028°50'1114.6
2014-Aug-29 12:28N 34°18' E 028°37'39214.5
2014-Aug-28 09:24N 35°12' E 020°44'1214.4
2014-Aug-28 08:33N 35°14' E 020°30'1514.3
2014-Aug-28 07:32N 35°18' E 020°12'23814.8
2014-Aug-27 15:29N 36°10' E 015°26'1414.3
2014-Aug-27 14:30N 36°14' E 015°09'1414.5
2014-Aug-27 13:33N 36°17' E 014°53'1414.5
2014-Aug-27 12:33N 36°20' E 014°35'1514.6
2014-Aug-27 11:33N 36°24' E 014°18'1514.6
2014-Aug-27 10:34N 36°29' E 014°00'1514.5
2014-Aug-27 09:34N 36°33' E 013°43'1514.6
2014-Aug-27 08:34N 36°38' E 013°26'1514.6
2014-Aug-27 07:34N 36°43' E 013°09'1514.6
2014-Aug-27 06:34N 36°47' E 012°51'1615.9
2014-Aug-27 05:33N 36°51' E 012°33'1615.6
2014-Aug-27 04:33N 36°57' E 012°14'1514.6
2014-Aug-27 03:33N 37°02' E 011°57'1514.8
2014-Aug-27 02:33N 37°09' E 011°41'1514.7
2014-Aug-27 01:34N 37°16' E 011°25'1514.6
2014-Aug-27 00:34N 37°23' E 011°09'1514.6
2014-Aug-26 23:34N 37°29' E 010°52'1414.4
2014-Aug-26 22:33N 37°36' E 010°36'1514.6
2014-Aug-26 21:34N 37°43' E 010°20'1514.6
2014-Aug-26 20:34N 37°49' E 010°03'1414.1
2014-Aug-26 19:34N 37°51' E 009°45'1514.6
2014-Aug-26 18:34N 37°50' E 009°27'1514.7
2014-Aug-26 17:33N 37°50' E 009°08'1514.7
2014-Aug-26 16:33N 37°50' E 008°50'1514.7
2014-Aug-26 15:33N 37°47' E 008°31'1514.7
2014-Aug-26 14:33N 37°45' E 008°13'1514.8
2014-Aug-26 13:32N 37°42' E 007°54'1715.3
2014-Aug-26 12:25N 37°39' E 007°33'1614.8
2014-Aug-26 11:20N 37°36' E 007°13'1314.9
2014-Aug-26 10:29N 37°34' E 006°57'2714.1
2014-Aug-26 08:33N 37°30' E 006°23'1514.6
2014-Aug-26 07:33N 37°27' E 006°05'1616.0
2014-Aug-26 06:33N 37°24' E 005°45'1515.0
2014-Aug-26 05:33N 37°22' E 005°27'1514.5
2014-Aug-26 04:33N 37°19' E 005°09'1614.8
2014-Aug-26 03:29N 37°16' E 004°49'1414.8
2014-Aug-26 02:33N 37°14' E 004°32'1514.9
2014-Aug-26 01:33N 37°11' E 004°14'1814.7
2014-Aug-26 00:19N 37°08' E 003°51'1215.2
2014-Aug-25 23:33N 37°06' E 003°37'1514.7
2014-Aug-25 22:32N 37°03' E 003°19'1414.2
2014-Aug-25 21:33N 37°01' E 003°01'1515.0
2014-Aug-25 20:33N 36°58' E 002°43'1615.5
2014-Aug-25 19:33N 36°56' E 002°23'1515.2
2014-Aug-25 18:34N 36°53' E 002°05'1515.3
2014-Aug-25 17:34N 36°50' E 001°46'1515.3
2014-Aug-25 16:33N 36°47' E 001°27'1515.2
2014-Aug-25 15:33N 36°45' E 001°09'1514.7
2014-Aug-25 14:33N 36°41' E 000°51'1515.1
2014-Aug-25 13:33N 36°39' E 000°32'1515.5
2014-Aug-25 12:34N 36°37' E 000°13'1515.1
2014-Aug-25 11:33N 36°34' W 000°06'1514.9
2014-Aug-25 10:33N 36°32' W 000°24'1514.7
2014-Aug-25 09:33N 36°30' W 000°42'1814.7
2014-Aug-25 08:21N 36°26' W 001°04'1916.7
2014-Aug-25 07:13N 36°23' W 001°27'1014.8
2014-Aug-25 06:33N 36°21' W 001°39'3014.9
2014-Aug-25 04:33N 36°16' W 002°15'1614.8
2014-Aug-25 03:29N 36°13' W 002°34'13815.5
2014-Aug-24 18:33N 35°58' W 005°24'11015.0
2014-Aug-24 11:12N 36°11' W 007°39'1114.9
2014-Aug-24 10:26N 36°13' W 007°53'1814.8
2014-Aug-24 09:15N 36°16' W 008°15'16114.9
2014-Aug-23 22:27N 36°56' W 011°29'1314.7
2014-Aug-23 21:33N 36°60' W 011°45'  

Dump ship's entire track history